createdAt,value
2018-06-19T00:02:01.902Z,14.20
2018-06-19T00:05:06.242Z,15.67
2018-06-19T00:08:10.615Z,15.20
2018-06-19T00:11:15.120Z,17.30
2018-06-19T00:14:19.441Z,19.03
2018-06-19T00:17:23.718Z,15.63
2018-06-19T00:20:28.224Z,17.43
2018-06-19T00:23:32.648Z,24.40
2018-06-19T00:26:37.028Z,15.40
2018-06-19T00:29:41.447Z,17.17
2018-06-19T00:32:45.877Z,15.93
2018-06-19T00:35:50.295Z,17.03
2018-06-19T00:38:54.841Z,13.57
2018-06-19T00:41:59.113Z,14.00
2018-06-19T00:45:03.442Z,14.10
2018-06-19T00:48:08.562Z,19.80
2018-06-19T00:51:12.899Z,16.40
2018-06-19T00:54:17.292Z,16.47
2018-06-19T00:57:21.720Z,15.37
2018-06-19T01:00:26.042Z,18.27
2018-06-19T01:03:30.349Z,16.77
2018-06-19T01:06:34.832Z,16.33
2018-06-19T01:09:39.184Z,16.17
2018-06-19T01:12:43.644Z,20.40
2018-06-19T01:15:47.978Z,19.20
2018-06-19T01:18:52.366Z,19.23
2018-06-19T01:21:56.690Z,20.93
2018-06-19T01:25:01.006Z,18.00
2018-06-19T01:28:05.300Z,16.63
2018-06-19T01:31:09.460Z,18.63
2018-06-19T01:34:13.844Z,19.40
2018-06-19T01:37:18.235Z,23.03
2018-06-19T01:40:22.560Z,19.40
2018-06-19T01:43:26.898Z,24.07
2018-06-19T01:46:31.046Z,21.57
2018-06-19T01:49:35.315Z,20.53
2018-06-19T01:52:39.603Z,18.80
2018-06-19T01:55:43.868Z,22.47
2018-06-19T01:58:48.216Z,24.97
2018-06-19T02:01:52.624Z,21.47
2018-06-19T02:04:57.119Z,18.10
2018-06-19T02:08:01.516Z,18.70
2018-06-19T02:11:05.892Z,20.63
2018-06-19T02:14:10.190Z,20.00
2018-06-19T02:17:14.384Z,19.60
2018-06-19T02:20:18.742Z,22.37
2018-06-19T02:23:23.957Z,16.97
2018-06-19T02:26:28.344Z,24.10
2018-06-19T02:29:32.735Z,19.73
2018-06-19T02:32:37.065Z,22.77
2018-06-19T02:35:41.364Z,22.30
2018-06-19T02:38:45.663Z,19.93
2018-06-19T02:41:50.217Z,19.53
2018-06-19T02:44:54.517Z,16.60
2018-06-19T02:47:58.816Z,22.80
2018-06-19T02:51:03.193Z,18.67
2018-06-19T02:54:07.453Z,18.67
2018-06-19T02:57:11.742Z,21.60
2018-06-19T03:00:16.033Z,19.80
2018-06-19T03:03:20.328Z,22.20
2018-06-19T03:06:24.646Z,20.67
2018-06-19T03:09:28.998Z,18.27
2018-06-19T03:12:33.264Z,18.37
2018-06-19T03:15:37.633Z,17.87
2018-06-19T03:18:41.940Z,23.67
2018-06-19T03:21:46.239Z,19.97
2018-06-19T03:24:50.521Z,20.00
2018-06-19T03:27:54.893Z,15.83
2018-06-19T03:30:58.997Z,17.40
2018-06-19T03:34:03.318Z,15.80
2018-06-19T03:37:07.620Z,23.40
2018-06-19T03:40:11.948Z,19.07
2018-06-19T03:43:16.302Z,14.37
2018-06-19T03:46:20.628Z,16.80
2018-06-19T03:49:24.920Z,19.17
2018-06-19T03:52:29.959Z,21.03
2018-06-19T03:55:34.273Z,21.07
2018-06-19T03:58:38.580Z,20.20
2018-06-19T04:01:42.913Z,17.93
2018-06-19T04:04:47.263Z,23.70
2018-06-19T04:07:51.719Z,19.90
2018-06-19T04:10:56.099Z,25.57
2018-06-19T04:14:00.397Z,26.37
2018-06-19T04:17:04.628Z,18.63
2018-06-19T04:20:08.926Z,25.13
2018-06-19T04:23:13.250Z,21.63
2018-06-19T04:26:17.615Z,22.80
2018-06-19T04:29:21.887Z,18.80
2018-06-19T04:32:26.257Z,18.37
2018-06-19T04:35:30.529Z,25.20
2018-06-19T04:38:34.821Z,19.83
2018-06-19T04:41:39.081Z,19.03
2018-06-19T04:44:43.455Z,22.10
2018-06-19T04:47:47.827Z,17.10
2018-06-19T04:50:52.169Z,24.73
2018-06-19T04:53:56.445Z,21.47
2018-06-19T04:57:00.799Z,22.30
2018-06-19T05:00:05.532Z,21.07
2018-06-19T05:03:09.821Z,19.57
2018-06-19T05:06:14.145Z,27.23
2018-06-19T05:09:18.506Z,18.90
2018-06-19T05:12:22.776Z,22.07
2018-06-19T05:15:27.373Z,22.57
2018-06-19T05:18:31.727Z,20.80
2018-06-19T05:21:36.091Z,14.70
2018-06-19T05:24:40.513Z,20.50
2018-06-19T05:27:44.824Z,19.40
2018-06-19T05:30:49.147Z,24.00
2018-06-19T05:33:53.441Z,22.00
2018-06-19T05:36:57.758Z,21.03
2018-06-19T05:40:02.122Z,20.93
2018-06-19T05:43:06.514Z,21.77
2018-06-19T05:46:10.914Z,21.03
2018-06-19T05:49:15.259Z,21.70
2018-06-19T05:52:19.550Z,19.73
2018-06-19T05:55:23.913Z,24.00
2018-06-19T05:58:28.202Z,22.90
2018-06-19T06:01:32.502Z,17.13
2018-06-19T06:04:36.785Z,28.63
2018-06-19T06:07:41.079Z,17.27
2018-06-19T06:10:45.418Z,20.17
2018-06-19T06:13:49.552Z,23.13
2018-06-19T06:16:53.834Z,21.73
2018-06-19T06:19:58.165Z,22.10
2018-06-19T06:23:02.450Z,25.37
2018-06-19T06:26:06.913Z,21.67
2018-06-19T06:29:11.277Z,22.87
2018-06-19T06:32:15.644Z,17.83
2018-06-19T06:35:20.104Z,20.13
2018-06-19T06:38:24.381Z,22.40
2018-06-19T06:41:28.759Z,23.50
2018-06-19T06:44:33.013Z,17.90
2018-06-19T06:47:37.497Z,19.00
2018-06-19T06:50:41.758Z,23.43
2018-06-19T06:53:46.139Z,22.57
2018-06-19T06:56:50.452Z,21.03
2018-06-19T06:59:54.791Z,21.83
2018-06-19T07:02:59.203Z,18.20
2018-06-19T07:06:03.624Z,20.00
2018-06-19T07:09:10.965Z,25.77
2018-06-19T07:12:15.441Z,21.50
2018-06-19T07:15:19.691Z,18.87
2018-06-19T07:18:24.084Z,16.67
2018-06-19T07:21:28.646Z,15.20
2018-06-19T07:24:33.055Z,17.83
2018-06-19T07:27:37.462Z,21.30
2018-06-19T07:30:41.820Z,14.43
2018-06-19T07:33:46.078Z,13.13
2018-06-19T07:36:50.442Z,15.57
2018-06-19T07:39:54.745Z,19.13
2018-06-19T07:43:03.140Z,15.90
2018-06-19T07:46:07.459Z,15.63
2018-06-19T07:49:11.809Z,15.40
2018-06-19T07:52:16.094Z,10.00
2018-06-19T07:55:20.454Z,13.60
2018-06-19T07:58:24.756Z,10.47
2018-06-19T08:01:29.098Z,13.13
2018-06-19T08:04:33.489Z,14.50
2018-06-19T08:07:37.820Z,9.00
2018-06-19T08:10:42.146Z,14.03
2018-06-19T08:13:46.605Z,11.27
2018-06-19T08:16:50.980Z,14.13
2018-06-19T08:19:55.343Z,13.40
2018-06-19T08:22:59.617Z,14.50
2018-06-19T08:26:03.982Z,11.03
2018-06-19T08:29:08.376Z,9.93
2018-06-19T08:32:12.669Z,11.00
2018-06-19T08:35:17.012Z,8.37
2018-06-19T08:38:21.364Z,11.63
2018-06-19T08:41:25.644Z,11.93
2018-06-19T08:44:30.005Z,11.83
2018-06-19T08:47:34.265Z,11.87
2018-06-19T08:50:38.645Z,10.33
2018-06-19T08:53:42.949Z,10.20
2018-06-19T08:56:47.324Z,8.20
2018-06-19T08:59:51.609Z,7.50
2018-06-19T09:02:55.929Z,7.27
2018-06-19T09:06:00.225Z,4.80
2018-06-19T09:09:06.558Z,5.33
2018-06-19T09:12:10.841Z,3.63
2018-06-19T09:15:15.195Z,2.67
2018-06-19T09:18:19.545Z,5.23
2018-06-19T09:21:23.892Z,3.93
2018-06-19T09:24:28.239Z,3.87
2018-06-19T09:27:32.560Z,5.20
2018-06-19T09:30:36.852Z,4.03
2018-06-19T09:33:41.194Z,3.80
2018-06-19T09:36:45.525Z,3.83
2018-06-19T09:39:49.927Z,7.00
2018-06-19T09:42:54.233Z,4.20
2018-06-19T09:45:58.558Z,3.80
2018-06-19T09:49:02.877Z,5.13
2018-06-19T09:52:07.518Z,7.03
2018-06-19T09:55:11.855Z,6.40
2018-06-19T09:58:16.181Z,2.90
2018-06-19T10:01:20.551Z,5.00
2018-06-19T10:04:24.874Z,3.50
2018-06-19T10:07:29.217Z,4.73
2018-06-19T10:10:33.582Z,2.20
2018-06-19T10:13:37.869Z,3.73
2018-06-19T10:16:42.246Z,2.80
2018-06-19T10:19:46.674Z,4.20
2018-06-19T10:22:51.233Z,5.10
2018-06-19T10:25:55.523Z,3.83
2018-06-19T10:29:00.263Z,4.40
2018-06-19T10:32:04.628Z,4.47
2018-06-19T10:35:08.936Z,4.57
2018-06-19T10:38:13.256Z,2.47
2018-06-19T10:41:17.592Z,3.53
2018-06-19T10:44:21.896Z,3.33
2018-06-19T10:47:26.272Z,3.73
2018-06-19T10:50:30.568Z,2.90
2018-06-19T10:53:34.904Z,4.07
2018-06-19T10:56:39.309Z,6.07
2018-06-19T10:59:43.822Z,5.10
2018-06-19T11:02:48.388Z,5.53
2018-06-19T11:05:52.784Z,3.87
2018-06-19T11:08:57.040Z,4.17
2018-06-19T11:12:01.401Z,4.77
2018-06-19T11:15:06.051Z,4.77
2018-06-19T11:18:10.478Z,5.23
2018-06-19T11:21:14.797Z,4.77
2018-06-19T11:24:19.116Z,4.73
2018-06-19T11:27:23.414Z,6.63
2018-06-19T11:30:27.720Z,3.53
2018-06-19T11:33:32.040Z,4.80
2018-06-19T11:36:36.506Z,4.77
2018-06-19T11:39:40.881Z,8.97
2018-06-19T11:42:45.503Z,6.40
2018-06-19T11:45:49.849Z,8.97
2018-06-19T11:48:54.182Z,7.83
2018-06-19T11:51:58.540Z,6.27
2018-06-19T11:55:03.003Z,9.87
2018-06-19T11:58:07.338Z,8.10
2018-06-19T12:01:11.715Z,8.17
2018-06-19T12:04:16.130Z,7.43
2018-06-19T12:07:20.421Z,7.30
2018-06-19T12:10:24.718Z,8.90
2018-06-19T12:13:29.154Z,9.03
2018-06-19T12:16:33.771Z,7.90
2018-06-19T12:19:38.129Z,8.53
2018-06-19T12:22:42.487Z,7.93
2018-06-19T12:25:46.814Z,8.10
2018-06-19T12:28:51.191Z,6.70
2018-06-19T12:31:55.660Z,6.03
2018-06-19T12:34:59.938Z,9.40
2018-06-19T12:38:04.307Z,10.17
2018-06-19T12:41:08.632Z,8.83
2018-06-19T12:44:13.194Z,11.20
2018-06-19T12:47:17.591Z,8.63
2018-06-19T12:50:41.528Z,9.57
2018-06-19T12:56:03.876Z,8.70
2018-06-19T12:59:08.231Z,9.27
2018-06-19T13:02:12.555Z,7.67
2018-06-19T13:05:34.001Z,9.03
2018-06-19T13:08:38.341Z,8.20
2018-06-19T13:11:42.739Z,8.57
2018-06-19T13:14:47.064Z,9.73
2018-06-19T13:19:12.277Z,8.57
2018-06-19T13:22:16.711Z,8.70
2018-06-19T13:25:21.159Z,7.40
2018-06-19T13:29:52.139Z,9.47
2018-06-19T13:32:56.437Z,9.03
2018-06-19T13:36:00.815Z,8.53
2018-06-19T13:39:06.335Z,9.07
2018-06-19T13:42:27.712Z,7.87
2018-06-19T13:45:32.115Z,10.83
2018-06-19T13:48:36.539Z,6.00
2018-06-19T13:51:40.803Z,5.10
2018-06-19T13:54:47.623Z,10.13
2018-06-19T13:58:21.377Z,7.10
2018-06-19T14:01:25.666Z,6.07
2018-06-19T14:04:30.167Z,4.80
2018-06-19T14:07:40.029Z,8.67
2018-06-19T14:11:01.626Z,9.53
2018-06-19T14:14:05.965Z,13.03
2018-06-19T14:17:10.244Z,7.47
2018-06-19T14:20:14.700Z,4.97
2018-06-19T14:23:19.001Z,6.90
2018-06-19T14:26:23.448Z,9.17
2018-06-19T14:29:27.714Z,7.47
2018-06-19T14:32:32.058Z,9.50
2018-06-19T14:35:36.386Z,7.40
2018-06-19T14:38:40.830Z,5.37
2018-06-19T14:41:45.140Z,6.90
2018-06-19T14:44:49.598Z,5.50
2018-06-19T14:47:53.857Z,6.93
2018-06-19T14:50:58.201Z,8.10
2018-06-19T14:54:02.511Z,9.80
2018-06-19T14:57:06.760Z,8.40
2018-06-19T15:00:11.698Z,8.27
2018-06-19T15:03:16.022Z,8.30
2018-06-19T15:06:20.293Z,9.87
2018-06-19T15:09:24.412Z,10.40
2018-06-19T15:12:28.784Z,8.27
2018-06-19T15:15:33.200Z,9.13
2018-06-19T15:18:37.558Z,9.67
2018-06-19T15:21:41.913Z,8.93
2018-06-19T15:24:46.202Z,8.60
2018-06-19T15:27:51.774Z,14.83
2018-06-19T15:30:56.112Z,11.67
2018-06-19T15:34:00.557Z,9.20
2018-06-19T15:37:04.851Z,12.30
2018-06-19T15:40:09.273Z,11.40
2018-06-19T15:43:13.538Z,14.23
2018-06-19T15:46:17.949Z,8.03
2018-06-19T15:49:22.323Z,6.97
2018-06-19T15:52:26.734Z,7.77
2018-06-19T15:55:31.180Z,7.73
2018-06-19T15:58:35.498Z,6.90
2018-06-19T16:01:39.913Z,9.70
2018-06-19T16:04:44.240Z,9.03
2018-06-19T16:07:53.920Z,6.83
2018-06-19T16:10:58.210Z,9.60
2018-06-19T16:14:02.505Z,9.03
2018-06-19T16:17:06.910Z,9.97
2018-06-19T16:20:11.275Z,10.30
2018-06-19T16:23:15.697Z,8.83
2018-06-19T16:26:19.981Z,8.63
2018-06-19T16:29:24.338Z,7.03
2018-06-19T16:32:28.599Z,8.37
2018-06-19T16:35:32.999Z,8.80
2018-06-19T16:38:37.369Z,9.70
2018-06-19T16:41:41.834Z,4.40
2018-06-19T16:44:46.127Z,7.63
2018-06-19T16:47:50.555Z,7.33
2018-06-19T16:50:54.872Z,10.33
2018-06-19T16:53:59.295Z,6.40
2018-06-19T16:57:03.632Z,4.17
2018-06-19T17:00:08.150Z,7.00
2018-06-19T17:03:12.456Z,8.63
2018-06-19T17:06:16.898Z,6.20
2018-06-19T17:09:21.308Z,7.97
2018-06-19T17:12:25.692Z,10.73
2018-06-19T17:15:30.018Z,6.43
2018-06-19T17:18:34.341Z,10.47
2018-06-19T17:21:38.715Z,6.03
2018-06-19T17:24:43.166Z,12.10
2018-06-19T17:27:47.528Z,7.37
2018-06-19T17:30:51.901Z,11.20
2018-06-19T17:33:56.525Z,10.07
2018-06-19T17:37:00.890Z,6.33
2018-06-19T17:40:05.414Z,7.70
2018-06-19T17:43:09.752Z,11.47
2018-06-19T17:46:14.126Z,8.57
2018-06-19T17:49:18.494Z,8.50
2018-06-19T17:52:22.960Z,12.77
2018-06-19T17:55:27.340Z,10.97
2018-06-19T17:58:31.724Z,8.07
2018-06-19T18:01:36.057Z,12.90
2018-06-19T18:04:40.369Z,10.83
2018-06-19T18:07:44.717Z,9.90
2018-06-19T18:10:49.134Z,9.13
2018-06-19T18:13:53.492Z,10.23
2018-06-19T18:16:57.827Z,11.70
2018-06-19T18:20:02.208Z,9.83
2018-06-19T18:23:06.530Z,8.03
2018-06-19T18:26:10.886Z,9.27
2018-06-19T18:29:15.221Z,13.47
2018-06-19T18:32:19.594Z,13.83
2018-06-19T18:35:23.871Z,14.20
2018-06-19T18:38:28.215Z,10.17
2018-06-19T18:41:32.520Z,9.23
2018-06-19T18:44:36.908Z,8.57
2018-06-19T18:47:41.335Z,12.40
2018-06-19T18:50:45.651Z,8.13
2018-06-19T18:53:50.105Z,21.07
2018-06-19T18:56:54.463Z,12.20
2018-06-19T18:59:58.981Z,12.47
2018-06-19T19:03:03.300Z,9.30
2018-06-19T19:06:07.713Z,9.30
2018-06-19T19:09:12.822Z,12.63
2018-06-19T19:12:17.466Z,15.00
2018-06-19T19:15:27.286Z,9.90
2018-06-19T19:18:36.889Z,13.57
2018-06-19T19:21:41.225Z,10.80
2018-06-19T19:24:45.522Z,10.70
2018-06-19T19:27:55.017Z,11.83
2018-06-19T19:30:59.580Z,9.60
2018-06-19T19:34:03.943Z,11.47
2018-06-19T19:37:13.428Z,11.00
2018-06-19T19:40:17.785Z,12.27
2018-06-19T19:43:22.221Z,13.17
2018-06-19T19:46:31.751Z,10.40
2018-06-19T19:49:36.121Z,12.80
2018-06-19T19:52:40.497Z,9.80
2018-06-19T19:55:50.145Z,6.87
2018-06-19T19:58:54.451Z,13.00
2018-06-19T20:01:58.860Z,7.37
2018-06-19T20:05:03.144Z,13.80
2018-06-19T20:08:07.497Z,12.90
2018-06-19T20:11:11.865Z,14.83
2018-06-19T20:14:16.161Z,11.73
2018-06-19T20:17:20.465Z,10.47
2018-06-19T20:20:24.832Z,9.60
2018-06-19T20:23:29.216Z,16.10
2018-06-19T20:26:33.562Z,12.13
2018-06-19T20:29:37.906Z,10.57
2018-06-19T20:32:42.199Z,11.30
2018-06-19T20:35:46.481Z,12.63
2018-06-19T20:38:50.835Z,10.27
2018-06-19T20:41:55.256Z,11.87
2018-06-19T20:44:59.924Z,12.40
2018-06-19T20:48:04.212Z,8.20
2018-06-19T20:51:08.831Z,12.00
2018-06-19T20:54:13.161Z,16.13
2018-06-19T20:57:17.565Z,11.90
2018-06-19T21:00:21.857Z,12.77
2018-06-19T21:03:26.424Z,9.30
2018-06-19T21:06:30.733Z,10.00
2018-06-19T21:09:35.180Z,10.67
2018-06-19T21:12:39.512Z,14.03
2018-06-19T21:15:43.753Z,14.17
2018-06-19T21:18:48.397Z,13.07
2018-06-19T21:21:52.749Z,11.37
2018-06-19T21:24:57.145Z,12.13
2018-06-19T21:28:01.441Z,8.97
2018-06-19T21:31:05.867Z,12.40
2018-06-19T21:34:10.139Z,11.37
2018-06-19T21:37:14.693Z,13.90
2018-06-19T21:40:18.960Z,8.10
2018-06-19T21:43:23.383Z,8.60
2018-06-19T21:46:27.720Z,14.27
2018-06-19T21:49:32.019Z,12.43
2018-06-19T21:52:36.297Z,9.47
2018-06-19T21:55:41.070Z,11.83
2018-06-19T21:58:45.740Z,15.37
2018-06-19T22:01:50.289Z,13.10
2018-06-19T22:04:54.636Z,8.63
2018-06-19T22:07:59.013Z,13.50
2018-06-19T22:11:03.440Z,10.00
2018-06-19T22:14:07.889Z,12.17
2018-06-19T22:17:12.384Z,11.20
2018-06-19T22:20:16.802Z,10.13
2018-06-19T22:23:21.093Z,15.93
2018-06-19T22:26:25.419Z,11.00
2018-06-19T22:29:29.670Z,12.50
2018-06-19T22:32:34.105Z,8.43
2018-06-19T22:35:38.625Z,13.93
2018-06-19T22:38:42.971Z,11.23
2018-06-19T22:41:47.349Z,12.60
2018-06-19T22:44:51.735Z,10.57
2018-06-19T22:47:56.310Z,13.47
2018-06-19T22:51:00.932Z,14.03
2018-06-19T22:54:06.331Z,10.73
2018-06-19T22:57:10.767Z,9.63
2018-06-19T23:00:16.228Z,13.70
2018-06-19T23:03:20.636Z,12.10
2018-06-19T23:06:24.944Z,9.40
2018-06-19T23:09:29.361Z,11.77
2018-06-19T23:12:33.658Z,13.13
2018-06-19T23:15:38.030Z,17.27
2018-06-19T23:18:42.416Z,9.77
2018-06-19T23:21:46.743Z,14.40
2018-06-19T23:24:51.078Z,15.23
2018-06-19T23:27:55.480Z,14.60
2018-06-19T23:30:59.816Z,12.43
2018-06-19T23:34:04.132Z,10.20
2018-06-19T23:37:08.493Z,9.50
2018-06-19T23:40:12.829Z,11.10
2018-06-19T23:43:16.899Z,10.80
2018-06-19T23:46:21.303Z,11.77
2018-06-19T23:49:25.682Z,10.87
2018-06-19T23:52:30.504Z,12.83
2018-06-19T23:55:34.787Z,12.73
2018-06-19T23:58:39.201Z,15.73
